Time;durP1;ratioP1;P1;durP2;ratioP2;P2;SDS_P1;SDS_P2;PMS_P1;PMS_P2;Temp;Humidity;BMP_temperature;BMP_pressure;BME280_temperature;BME280_humidity;BME280_pressure;Samples;Min_cycle;Max_cycle;Signal;HPM_P1;HPM_P2
2021/04/20 00:14:33;;;;;;;;;;;;;;;;;;5107538;27;20755;-56
2021/04/20 00:16:59;;;;;;;;;;;;;;;;;;5089077;28;20347;-56
2021/04/20 00:19:25;;;;;;;;;;;;;;;;;;5088412;28;19909;-59
2021/04/20 00:21:51;;;;;;;;;;;;;;;;;;5088515;28;19908;-57
2021/04/20 00:24:17;;;;;;;;;;;;;;;;;;5087696;28;19912;-57
2021/04/20 00:26:43;;;;;;;;;;;;;;;;;;5087858;28;19963;-59
2021/04/20 00:29:09;;;;;;;;;;;;;;;;;;5087323;28;19947;-59
2021/04/20 00:31:35;;;;;;;;;;;;;;;;;;5088840;28;19922;-57
2021/04/20 00:34:01;;;;;;;;;;;;;;;;;;5087437;28;19904;-57
2021/04/20 00:36:27;;;;;;;;;;;;;;;;;;5087610;28;20377;-59
2021/04/20 00:38:53;;;;;;;;;;;;;;;;;;5087847;28;19912;-57
2021/04/20 00:41:19;;;;;;;;;;;;;;;;;;5087764;28;19911;-59
2021/04/20 00:43:45;;;;;;;;;;;;;;;;;;5087905;28;19920;-55
2021/04/20 00:46:11;;;;;;;;;;;;;;;;;;5087670;28;19908;-59
2021/04/20 00:48:37;;;;;;;;;;;;;;;;;;5087236;28;20331;-59
2021/04/20 00:51:02;;;;;;;;;;;;;;;;;;5087513;28;19904;-56
2021/04/20 00:53:28;;;;;;;;;;;;;;;;;;5087595;28;19913;-58
2021/04/20 00:55:54;;;;;;;;;;;;;;;;;;5087132;28;19939;-56
2021/04/20 00:58:21;;;;;;;;;;;;;;;;;;5087517;28;19910;-57
2021/04/20 01:00:48;;;;;;;0.43;0.43;;;;;;;;;;5086901;28;19958;-57
2021/04/20 01:03:14;;;;;;;0.17;0.17;;;;;;;;;;5086350;28;20059;-55
2021/04/20 01:05:40;;;;;;;0.10;0.10;;;;;;;;;;5086707;28;20052;-54
2021/04/20 01:08:06;;;;;;;0.30;0.30;;;;;;;;;;5086366;28;20398;-59
2021/04/20 01:10:38;;;;;;;20.17;2.83;;;;;;;;;;5087534;28;20021;-55
2021/04/20 01:13:05;;;;;;;0.10;0.10;;;;;;;;;;5086640;28;20044;-55
2021/04/20 01:15:32;;;;;;;0.10;0.10;;;;;;;;;;5072995;28;20402;-56
2021/04/20 01:18:08;;;;;;;0.10;0.10;;;;;;;;;;5072517;28;20032;-58
2021/04/20 01:20:34;;;;;;;0.10;0.10;;;;;;;;;;5057199;28;20493;-60
2021/04/20 01:23:00;;;;;;;5.47;1.95;;;;;;;;;;5069081;28;20093;-59
2021/04/20 01:25:28;;;;;;;0.10;0.10;;;;;;;;;;5072539;28;20024;-57
2021/04/20 01:27:54;;;;;;;0.10;0.10;;;;;;;;;;5072558;28;20537;-55
2021/04/20 01:30:20;;;;;;;0.55;0.55;;;;;;;;;;5071110;28;20056;-56
2021/04/20 01:32:46;;;;;;;0.10;0.10;;;;;;;;;;5072562;28;20094;-57
2021/04/20 01:35:13;;;;;;;0.10;0.10;;;;;;;;;;5073079;28;20079;-59
2021/04/20 01:37:40;;;;;;;0.13;0.13;;;;;;;;;;5073000;28;20112;-59
2021/04/20 01:40:07;;;;;;;0.17;0.17;;;;;;;;;;5072436;28;20555;-59
2021/04/20 01:42:34;;;;;;;17.90;1.50;;;;;;;;;;5072286;28;20040;-56
2021/04/20 01:45:00;;;;;;;1.02;1.02;;;;;;;;;;5072372;28;20033;-58
2021/04/20 01:47:27;;;;;;;0.10;0.10;;;;;;;;;;5071955;28;20028;-58
2021/04/20 01:49:54;;;;;;;0.10;0.10;;;;;;;;;;5072639;28;20028;-58
2021/04/20 01:52:21;;;;;;;0.35;0.35;;;;;;;;;;5072159;28;20028;-54
2021/04/20 01:54:47;;;;;;;0.22;0.22;;;;;;;;;;5072463;28;20032;-58
2021/04/20 01:57:15;;;;;;;0.10;0.10;;;;;;;;;;5072505;28;20086;-59
2021/04/20 01:59:42;;;;;;;0.10;0.10;;;;;;;;;;5072907;28;20027;-55
2021/04/20 02:02:08;;;;;;;0.10;0.10;;;;;;;;;;5070558;28;20027;-58
2021/04/20 02:04:35;;;;;;;0.10;0.10;;;;;;;;;;5050120;28;20040;-55
2021/04/20 02:07:01;;;;;;;0.10;0.10;;;;;;;;;;5072112;28;20385;-57
2021/04/20 02:09:28;;;;;;;0.40;0.40;;;;;;;;;;5070462;28;20028;-56
2021/04/20 02:11:54;;;;;;;1.15;1.10;;;;;;;;;;5069892;28;20021;-56
2021/04/20 02:14:20;;;;;;;0.10;0.10;;;;;;;;;;5071475;28;20044;-59
2021/04/20 02:16:46;;;;;;;0.10;0.10;;;;;;;;;;5072282;28;20056;-56
2021/04/20 02:19:14;;;;;;;0.10;0.10;;;;;;;;;;5072291;28;20032;-56
2021/04/20 02:21:41;;;;;;;0.10;0.10;;;;;;;;;;5072300;28;20020;-58
2021/04/20 02:24:13;;;;;;;0.10;0.10;;;;;;;;;;5072202;28;20036;-56
2021/04/20 02:26:39;;;;;;;0.20;0.20;;;;;;;;;;5071056;28;20035;-58
2021/04/20 02:29:06;;;;;;;0.10;0.10;;;;;;;;;;5072271;28;20032;-59
2021/04/20 02:31:34;;;;;;;0.10;0.10;;;;;;;;;;5072105;28;20074;-57
2021/04/20 02:34:01;;;;;;;0.10;0.10;;;;;;;;;;5071518;28;20107;-59
2021/04/20 02:36:27;;;;;;;0.17;0.17;;;;;;;;;;5071359;28;20036;-57
2021/04/20 02:38:53;;;;;;;0.10;0.10;;;;;;;;;;5071133;28;20024;-56
2021/04/20 02:41:19;;;;;;;0.10;0.10;;;;;;;;;;5069871;28;20489;-57
2021/04/20 02:43:46;;;;;;;0.10;0.10;;;;;;;;;;5071260;28;20044;-57
2021/04/20 02:46:13;;;;;;;0.10;0.10;;;;;;;;;;5071100;28;20028;-57
2021/04/20 02:48:39;;;;;;;0.10;0.10;;;;;;;;;;5071038;28;20085;-57
2021/04/20 02:51:09;;;;;;;0.10;0.10;;;;;;;;;;5071574;28;20021;-56
2021/04/20 02:53:36;;;;;;;0.10;0.10;;;;;;;;;;5055967;28;20413;-57
2021/04/20 02:56:02;;;;;;;0.10;0.10;;;;;;;;;;5072328;28;20021;-57
2021/04/20 02:58:28;;;;;;;0.10;0.10;;;;;;;;;;5071122;28;20028;-57
2021/04/20 03:01:03;;;;;;;0.10;0.10;;;;;;;;;;5070238;28;20521;-56
2021/04/20 03:03:29;;;;;;;0.10;0.10;;;;;;;;;;5071226;28;20120;-59
2021/04/20 03:05:56;;;;;;;0.10;0.10;;;;;;;;;;5070700;28;20056;-56
2021/04/20 03:08:22;;;;;;;0.10;0.10;;;;;;;;;;5070765;28;20060;-57
2021/04/20 03:10:48;;;;;;;0.10;0.10;;;;;;;;;;5071789;28;20024;-59
2021/04/20 03:13:17;;;;;;;0.10;0.10;;;;;;;;;;5070645;28;20551;-54
2021/04/20 03:15:43;;;;;;;0.10;0.10;;;;;;;;;;5071109;28;20032;-59
2021/04/20 03:18:10;;;;;;;0.10;0.10;;;;;;;;;;5071222;28;20503;-59
2021/04/20 03:20:37;;;;;;;0.10;0.10;;;;;;;;;;5070963;28;20020;-60
2021/04/20 03:23:03;;;;;;;0.10;0.10;;;;;;;;;;5071011;28;20047;-58
2021/04/20 03:25:32;;;;;;;0.10;0.10;;;;;;;;;;5070316;28;20024;-58
2021/04/20 03:27:59;;;;;;;0.10;0.10;;;;;;;;;;5069937;28;20108;-58
2021/04/20 03:30:26;;;;;;;0.10;0.10;;;;;;;;;;5069113;28;20029;-59
2021/04/20 03:32:56;;;;;;;0.10;0.10;;;;;;;;;;5070310;28;20109;-56
2021/04/20 03:35:31;;;;;;;0.10;0.10;;;;;;;;;;5069051;28;20028;-61
2021/04/20 03:37:57;;;;;;;0.10;0.10;;;;;;;;;;5070605;28;20035;-57
2021/04/20 03:40:24;;;;;;;0.10;0.10;;;;;;;;;;5070337;28;20025;-55
2021/04/20 03:42:58;;;;;;;0.10;0.10;;;;;;;;;;5070323;28;20043;-58
2021/04/20 03:45:30;;;;;;;0.10;0.10;;;;;;;;;;5070752;28;20111;-59
2021/04/20 03:48:04;;;;;;;0.10;0.10;;;;;;;;;;5069268;28;20036;-57
2021/04/20 03:50:33;;;;;;;0.10;0.10;;;;;;;;;;5070649;28;20118;-59
2021/04/20 03:53:02;;;;;;;0.10;0.10;;;;;;;;;;5071032;28;20401;-58
2021/04/20 03:55:29;;;;;;;0.10;0.10;;;;;;;;;;5069888;28;20025;-54
2021/04/20 03:57:56;;;;;;;0.10;0.10;;;;;;;;;;5069637;28;20064;-59
2021/04/20 04:00:24;;;;;;;0.10;0.10;;;;;;;;;;5069951;28;20433;-57
2021/04/20 04:02:51;;;;;;;0.10;0.10;;;;;;;;;;5070008;28;20028;-58
2021/04/20 04:05:19;;;;;;;0.10;0.10;;;;;;;;;;5070565;28;20051;-55
2021/04/20 04:07:46;;;;;;;0.10;0.10;;;;;;;;;;5068627;28;20115;-57
2021/04/20 04:10:12;;;;;;;0.10;0.10;;;;;;;;;;5069652;28;20021;-56
2021/04/20 04:12:39;;;;;;;0.10;0.10;;;;;;;;;;5069427;28;20119;-59
2021/04/20 04:15:07;;;;;;;0.10;0.10;;;;;;;;;;5070014;28;20067;-57
2021/04/20 04:17:33;;;;;;;0.10;0.10;;;;;;;;;;5054715;28;20033;-55
2021/04/20 04:20:02;;;;;;;0.10;0.10;;;;;;;;;;5070986;28;20029;-55
2021/04/20 04:22:30;;;;;;;0.10;0.10;;;;;;;;;;5070038;28;20075;-58
2021/04/20 04:24:57;;;;;;;0.10;0.10;;;;;;;;;;5069305;28;20053;-55
2021/04/20 04:27:24;;;;;;;0.10;0.10;;;;;;;;;;5069493;28;20078;-59
2021/04/20 04:29:52;;;;;;;0.10;0.10;;;;;;;;;;5070015;28;20497;-59
2021/04/20 04:32:19;;;;;;;0.10;0.10;;;;;;;;;;5070015;28;20070;-60
2021/04/20 04:34:49;;;;;;;0.10;0.10;;;;;;;;;;5069012;28;20032;-56
2021/04/20 04:37:16;;;;;;;0.10;0.10;;;;;;;;;;5070078;28;20052;-57
2021/04/20 04:39:45;;;;;;;0.10;0.10;;;;;;;;;;5069801;28;20017;-56
2021/04/20 04:42:12;;;;;;;0.10;0.10;;;;;;;;;;5069290;28;20036;-58
2021/04/20 04:44:39;;;;;;;0.10;0.10;;;;;;;;;;5069650;28;20025;-59
2021/04/20 04:47:08;;;;;;;0.10;0.10;;;;;;;;;;5070047;28;20029;-57
2021/04/20 04:49:36;;;;;;;2.53;2.33;;;;;;;;;;5071510;28;20028;-57
2021/04/20 04:52:03;;;;;;;0.10;0.10;;;;;;;;;;5073044;28;20048;-58
2021/04/20 04:54:29;;;;;;;0.20;0.20;;;;;;;;;;5072783;28;20027;-57
2021/04/20 04:56:55;;;;;;;0.10;0.10;;;;;;;;;;5073049;28;20119;-55
2021/04/20 04:59:23;;;;;;;0.10;0.10;;;;;;;;;;5073720;28;20039;-57
2021/04/20 05:01:51;;;;;;;0.10;0.10;;;;;;;;;;5058349;28;20437;-58
2021/04/20 05:04:17;;;;;;;0.10;0.10;;;;;;;;;;5071057;28;20047;-56
2021/04/20 05:06:47;;;;;;;0.55;0.35;;;;;;;;;;5068889;28;20020;-56
2021/04/20 05:09:14;;;;;;;0.10;0.10;;;;;;;;;;5068589;28;20064;-58
2021/04/20 05:11:40;;;;;;;0.10;0.10;;;;;;;;;;5072580;28;20025;-57
2021/04/20 05:14:07;;;;;;;0.10;0.10;;;;;;;;;;5069175;28;20517;-56
2021/04/20 05:16:34;;;;;;;0.10;0.10;;;;;;;;;;5069430;28;20024;-59
2021/04/20 05:19:01;;;;;;;0.10;0.10;;;;;;;;;;5068739;28;20028;-57
2021/04/20 05:21:28;;;;;;;0.00;0.00;;;;;;;;;;5068210;28;20032;-57
2021/04/20 05:23:54;;;;;;;0.10;0.10;;;;;;;;;;5056960;28;20530;-54
2021/04/20 05:26:20;;;;;;;0.00;0.00;;;;;;;;;;5070870;28;20111;-52
2021/04/20 05:28:46;;;;;;;0.10;0.10;;;;;;;;;;5069099;28;20525;-53
2021/04/20 05:31:12;;;;;;;0.10;0.10;;;;;;;;;;5068464;28;20032;-57
2021/04/20 05:33:39;;;;;;;0.00;0.00;;;;;;;;;;5072756;28;20089;-58
2021/04/20 05:36:08;;;;;;;0.10;0.10;;;;;;;;;;5073003;28;20037;-58
2021/04/20 05:38:34;;;;;;;0.10;0.10;;;;;;;;;;5056859;28;20028;-55
2021/04/20 05:41:02;;;;;;;0.00;0.00;;;;;;;;;;5069263;28;20078;-56
2021/04/20 05:43:28;;;;;;;0.10;0.10;;;;;;;;;;5072248;28;20113;-57
2021/04/20 05:45:54;;;;;;;0.10;0.10;;;;;;;;;;5072672;28;20024;-55
2021/04/20 05:48:21;;;;;;;0.10;0.10;;;;;;;;;;5067961;28;20525;-58
2021/04/20 05:50:50;;;;;;;0.10;0.10;;;;;;;;;;5072793;28;20032;-59
2021/04/20 05:53:17;;;;;;;0.10;0.10;;;;;;;;;;5072203;28;20393;-53
2021/04/20 05:55:43;;;;;;;0.10;0.10;;;;;;;;;;5073010;28;20052;-59
2021/04/20 05:58:10;;;;;;;0.10;0.10;;;;;;;;;;5071777;28;20521;-58
2021/04/20 06:00:36;;;;;;;0.10;0.10;;;;;;;;;;5069324;28;20020;-56
2021/04/20 06:03:02;;;;;;;0.10;0.10;;;;;;;;;;5069428;28;20044;-56
2021/04/20 06:05:30;;;;;;;0.10;0.10;;;;;;;;;;5069834;28;20027;-56
2021/04/20 06:07:58;;;;;;;0.10;0.10;;;;;;;;;;5071404;28;20405;-54
2021/04/20 06:10:25;;;;;;;0.40;0.40;;;;;;;;;;5068698;28;20029;-58
2021/04/20 06:12:51;;;;;;;1.98;1.48;;;;;;;;;;5069215;28;20044;-56
2021/04/20 06:15:22;;;;;;;3.33;0.90;;;;;;;;;;5069647;28;20028;-51
2021/04/20 06:17:49;;;;;;;0.10;0.10;;;;;;;;;;5070059;28;20048;-57
2021/04/20 06:20:17;;;;;;;0.10;0.10;;;;;;;;;;5071437;28;20028;-54
2021/04/20 06:22:46;;;;;;;0.10;0.10;;;;;;;;;;5072070;28;20040;-54
2021/04/20 06:25:13;;;;;;;0.00;0.00;;;;;;;;;;5069463;28;20111;-58
2021/04/20 06:27:40;;;;;;;0.10;0.10;;;;;;;;;;5069078;28;20544;-59
2021/04/20 06:30:07;;;;;;;2.03;1.85;;;;;;;;;;5068766;28;20047;-56
2021/04/20 06:32:36;;;;;;;0.10;0.10;;;;;;;;;;5053031;28;20032;-57
2021/04/20 06:35:03;;;;;;;1.08;1.08;;;;;;;;;;5067303;28;20455;-54
2021/04/20 06:37:29;;;;;;;0.00;0.00;;;;;;;;;;5069850;28;20028;-54
2021/04/20 06:39:56;;;;;;;0.10;0.10;;;;;;;;;;5070476;28;20030;-55
2021/04/20 06:42:23;;;;;;;0.17;0.17;;;;;;;;;;5068867;28;20040;-55
2021/04/20 06:44:57;;;;;;;1.95;1.75;;;;;;;;;;5067887;28;20407;-57
2021/04/20 06:47:25;;;;;;;0.20;0.20;;;;;;;;;;5070837;28;20036;-55
2021/04/20 06:50:02;;;;;;;0.32;0.28;;;;;;;;;;5071023;28;20032;-57
2021/04/20 06:52:47;;;;;;;0.10;0.10;;;;;;;;;;5067820;28;20040;-56
2021/04/20 06:55:15;;;;;;;6.20;5.87;;;;;;;;;;5068580;28;20460;-54
2021/04/20 06:57:45;;;;;;;0.10;0.10;;;;;;;;;;5069063;28;20363;-54
2021/04/20 07:00:14;;;;;;;0.10;0.10;;;;;;;;;;5066985;28;20033;-56
2021/04/20 07:02:50;;;;;;;0.10;0.10;;;;;;;;;;5068620;28;20536;-56
2021/04/20 07:05:21;;;;;;;0.10;0.10;;;;;;;;;;5070655;28;20170;-55
2021/04/20 07:07:53;;;;;;;0.10;0.10;;;;;;;;;;5069562;28;20028;-57
2021/04/20 07:10:29;;;;;;;0.10;0.10;;;;;;;;;;5067871;28;20032;-57
2021/04/20 07:12:57;;;;;;;0.10;0.10;;;;;;;;;;5067340;28;20080;-57
2021/04/20 07:15:25;;;;;;;0.10;0.10;;;;;;;;;;5067679;28;20119;-57
2021/04/20 07:18:06;;;;;;;0.10;0.10;;;;;;;;;;5067927;28;20082;-57
2021/04/20 07:20:44;;;;;;;0.10;0.10;;;;;;;;;;5051927;28;20066;-56
2021/04/20 07:23:14;;;;;;;0.10;0.10;;;;;;;;;;5065896;28;20089;-57
2021/04/20 07:25:59;;;;;;;0.50;0.50;;;;;;;;;;5069708;28;20410;-57
2021/04/20 07:28:30;;;;;;;0.10;0.10;;;;;;;;;;5068046;28;20039;-58
2021/04/20 07:31:15;;;;;;;0.60;0.60;;;;;;;;;;5065537;28;20052;-52
2021/04/20 07:33:58;;;;;;;1.55;1.45;;;;;;;;;;5067621;28;20036;-52
2021/04/20 07:36:34;;;;;;;0.10;0.10;;;;;;;;;;5068080;28;20029;-57
2021/04/20 07:39:07;;;;;;;0.03;0.03;;;;;;;;;;5069199;28;20036;-58
2021/04/20 07:41:39;;;;;;;0.25;0.20;;;;;;;;;;5054299;28;20078;-56
2021/04/20 07:44:13;;;;;;;0.25;0.25;;;;;;;;;;5070586;28;20387;-56
2021/04/20 07:46:42;;;;;;;0.10;0.10;;;;;;;;;;5070610;28;20021;-58
2021/04/20 07:49:08;;;;;;;0.43;0.43;;;;;;;;;;5069473;28;20119;-57
2021/04/20 07:51:53;;;;;;;2.08;1.92;;;;;;;;;;5067758;28;20414;-58
2021/04/20 07:54:31;;;;;;;1.00;1.00;;;;;;;;;;5068934;28;20428;-56
2021/04/20 07:57:16;;;;;;;0.10;0.10;;;;;;;;;;5069470;28;20040;-59
2021/04/20 07:59:44;;;;;;;0.75;0.75;;;;;;;;;;5069578;28;20024;-57
2021/04/20 08:02:19;;;;;;;3.13;1.58;;;;;;;;;;5069762;28;20045;-60
2021/04/20 08:04:48;;;;;;;7.15;4.13;;;;;;;;;;5068168;28;20037;-57
2021/04/20 08:07:36;;;;;;;1.80;1.00;;;;;;;;;;5066724;28;20389;-54
2021/04/20 08:10:03;;;;;;;1.65;0.75;;;;;;;;;;5066334;28;20043;-57
2021/04/20 08:12:32;;;;;;;1.85;1.00;;;;;;;;;;5066953;28;20033;-55
2021/04/20 08:15:07;;;;;;;0.15;0.15;;;;;;;;;;5067614;28;20106;-57
2021/04/20 08:17:39;;;;;;;0.75;0.75;;;;;;;;;;5051803;28;20601;-58
2021/04/20 08:20:10;;;;;;;0.10;0.10;;;;;;;;;;5066640;28;20036;-56
2021/04/20 08:22:36;;;;;;;0.47;0.47;;;;;;;;;;5068410;28;20513;-54
2021/04/20 08:25:06;;;;;;;14.98;2.58;;;;;;;;;;5069871;28;20028;-56
2021/04/20 08:27:50;;;;;;;0.35;0.30;;;;;;;;;;5071308;28;20485;-56
2021/04/20 08:30:33;;;;;;;0.10;0.10;;;;;;;;;;5070872;28;20692;-58
2021/04/20 08:33:00;;;;;;;0.25;0.25;;;;;;;;;;5070637;28;20470;-58
2021/04/20 08:35:29;;;;;;;2.28;2.08;;;;;;;;;;5072090;28;20032;-56
2021/04/20 08:37:55;;;;;;;1.70;1.05;;;;;;;;;;5071934;28;20071;-58
2021/04/20 08:40:26;;;;;;;2.85;1.15;;;;;;;;;;5071134;28;20025;-57
2021/04/20 08:43:09;;;;;;;0.52;0.52;;;;;;;;;;5070559;28;20029;-56
2021/04/20 08:45:49;;;;;;;0.10;0.10;;;;;;;;;;5067771;28;20033;-58
2021/04/20 08:48:21;;;;;;;0.70;0.17;;;;;;;;;;5072363;28;20032;-56
2021/04/20 08:50:59;;;;;;;0.10;0.10;;;;;;;;;;5070842;28;20064;-58
2021/04/20 08:53:34;;;;;;;2.22;1.95;;;;;;;;;;5071965;28;20037;-57
2021/04/20 08:56:24;;;;;;;0.73;0.73;;;;;;;;;;5073496;28;20120;-58
2021/04/20 08:58:59;;;;;;;2.85;1.17;;;;;;;;;;5070286;28;20031;-55
2021/04/20 09:01:25;;;;;;;;;;;;;;;;;;5066689;28;20078;-57
2021/04/20 09:03:51;;;;;;;;;;;;;;;;;;5067789;28;19916;-59
2021/04/20 09:06:17;;;;;;;;;;;;;;;;;;5069282;28;19908;-59
2021/04/20 09:08:43;;;;;;;;;;;;;;;;;;5067188;28;19912;-59
2021/04/20 09:11:10;;;;;;;;;;;;;;;;;;5064216;28;20453;-60
2021/04/20 09:13:43;;;;;;;0.10;0.10;;;;;;;;;;5066278;28;19942;-58
2021/04/20 09:16:12;;;;;;;0.35;0.35;;;;;;;;;;5069019;28;20397;-58
2021/04/20 09:18:46;;;;;;;0.50;0.50;;;;;;;;;;5070630;28;20024;-59
2021/04/20 09:21:14;;;;;;;0.03;0.03;;;;;;;;;;5065567;28;20029;-60
2021/04/20 09:23:47;;;;;;;0.65;0.65;;;;;;;;;;5067993;28;20043;-59
2021/04/20 09:26:30;;;;;;;0.20;0.20;;;;;;;;;;5061789;28;20021;-57
2021/04/20 09:28:56;;;;;;;0.40;0.40;;;;;;;;;;5065801;28;20054;-56
2021/04/20 09:31:23;;;;;;;0.50;0.50;;;;;;;;;;5062727;28;20536;-57
2021/04/20 09:33:52;;;;;;;0.55;0.55;;;;;;;;;;5063442;28;20047;-59
2021/04/20 09:36:19;;;;;;;1.95;1.55;;;;;;;;;;5047838;28;20028;-57
2021/04/20 09:38:46;;;;;;;0.40;0.40;;;;;;;;;;5058952;28;20068;-57
2021/04/20 09:41:13;;;;;;;1.33;1.02;;;;;;;;;;5062219;28;20107;-59
2021/04/20 09:43:59;;;;;;;1.63;1.52;;;;;;;;;;5065965;28;20044;-62
2021/04/20 09:46:31;;;;;;;0.10;0.10;;;;;;;;;;5067252;28;20090;-57
2021/04/20 09:49:17;;;;;;;0.63;0.63;;;;;;;;;;5060964;28;20033;-56
2021/04/20 09:51:52;;;;;;;0.22;0.17;;;;;;;;;;5066079;28;20052;-57
2021/04/20 09:54:37;;;;;;;0.65;0.65;;;;;;;;;;5068203;28;20036;-57
2021/04/20 09:57:06;;;;;;;2.78;1.38;;;;;;;;;;5058526;28;20037;-59
2021/04/20 09:59:42;;;;;;;0.30;0.30;;;;;;;;;;5063349;28;20085;-62
2021/04/20 10:02:17;;;;;;;0.52;0.52;;;;;;;;;;5061160;28;20029;-57
2021/04/20 10:04:56;;;;;;;0.57;0.45;;;;;;;;;;5065431;28;20025;-58
2021/04/20 10:07:25;;;;;;;4.13;1.45;;;;;;;;;;5060886;28;20167;-59
2021/04/20 10:10:10;;;;;;;1.85;1.75;;;;;;;;;;5063801;28;20020;-58
2021/04/20 10:12:49;;;;;;;0.63;0.63;;;;;;;;;;5063163;28;20037;-60
2021/04/20 10:15:16;;;;;;;0.65;0.65;;;;;;;;;;5061170;28;20037;-57
2021/04/20 10:17:42;;;;;;;2.22;0.98;;;;;;;;;;5059611;28;20422;-56
2021/04/20 10:20:29;;;;;;;0.90;0.90;;;;;;;;;;5063002;28;20028;-61
2021/04/20 10:23:11;;;;;;;0.75;0.57;;;;;;;;;;5066140;28;20058;-59
2021/04/20 10:25:45;;;;;;;0.20;0.20;;;;;;;;;;5061372;28;20098;-56
2021/04/20 10:28:29;;;;;;;2.58;2.38;;;;;;;;;;5062974;28;20090;-58
2021/04/20 10:31:00;;;;;;;1.65;1.55;;;;;;;;;;5063909;28;20123;-57
2021/04/20 10:33:26;;;;;;;0.47;0.47;;;;;;;;;;5060763;28;20067;-56
2021/04/20 10:35:57;;;;;;;2.72;2.45;;;;;;;;;;5057063;28;20032;-59
2021/04/20 10:38:27;;;;;;;16.05;3.53;;;;;;;;;;5057294;28;20372;-59
2021/04/20 10:40:54;;;;;;;2.47;1.42;;;;;;;;;;5059538;28;20029;-58
2021/04/20 10:43:22;;;;;;;1.65;1.23;;;;;;;;;;5067993;28;20048;-59
2021/04/20 10:45:49;;;;;;;0.57;0.57;;;;;;;;;;5065174;28;20032;-59
2021/04/20 10:48:21;;;;;;;0.10;0.10;;;;;;;;;;5057237;28;20033;-59
2021/04/20 10:50:52;;;;;;;2.85;0.80;;;;;;;;;;5057703;28;20530;-57
2021/04/20 10:53:20;;;;;;;0.90;0.80;;;;;;;;;;5070183;28;20452;-57
2021/04/20 10:55:52;;;;;;;4.82;3.03;;;;;;;;;;5068427;28;20028;-57
2021/04/20 10:58:24;;;;;;;2.30;1.15;;;;;;;;;;5070223;28;20033;-58
2021/04/20 11:00:52;;;;;;;0.52;0.52;;;;;;;;;;5070818;28;20024;-58
2021/04/20 11:03:21;;;;;;;0.30;0.30;;;;;;;;;;5068349;28;20037;-58
2021/04/20 11:05:48;;;;;;;0.70;0.57;;;;;;;;;;5067967;28;20071;-59
2021/04/20 11:08:21;;;;;;;10.18;6.15;;;;;;;;;;5070760;28;20402;-57
2021/04/20 11:10:47;;;;;;;1.65;0.95;;;;;;;;;;5069281;28;20518;-55
2021/04/20 11:13:14;;;;;;;0.45;0.45;;;;;;;;;;5069595;28;20422;-58
2021/04/20 11:15:40;;;;;;;6.45;3.03;;;;;;;;;;5067635;28;20103;-57
2021/04/20 11:18:11;;;;;;;3.35;3.05;;;;;;;;;;5068608;28;20123;-57
2021/04/20 11:20:42;;;;;;;3.55;2.15;;;;;;;;;;5062305;28;20057;-58
2021/04/20 11:23:08;;;;;;;5.63;3.55;;;;;;;;;;5070795;28;20040;-59
2021/04/20 11:25:36;;;;;;;2.75;1.63;;;;;;;;;;5070004;28;20028;-55
2021/04/20 11:28:07;;;;;;;0.75;0.75;;;;;;;;;;5068164;28;20040;-57
2021/04/20 11:30:38;;;;;;;2.30;1.55;;;;;;;;;;5067404;28;20028;-58
2021/04/20 11:33:16;;;;;;;7.13;3.92;;;;;;;;;;5069312;28;20032;-56
2021/04/20 11:35:48;;;;;;;9.80;2.55;;;;;;;;;;5058173;28;20025;-62
2021/04/20 11:38:15;;;;;;;5.28;2.83;;;;;;;;;;5069203;28;20037;-59
2021/04/20 11:40:45;;;;;;;3.78;2.47;;;;;;;;;;5068633;28;20029;-59
2021/04/20 11:43:14;;;;;;;5.10;3.67;;;;;;;;;;5066563;28;20025;-58
2021/04/20 11:45:42;;;;;;;5.20;3.72;;;;;;;;;;5068421;28;20029;-58
2021/04/20 11:48:11;;;;;;;2.40;2.15;;;;;;;;;;5059644;28;20143;-60
2021/04/20 11:50:43;;;;;;;4.18;3.28;;;;;;;;;;5081257;28;20082;-57
2021/04/20 11:53:11;;;;;;;3.65;1.67;;;;;;;;;;5052647;28;20416;-60
2021/04/20 11:55:39;;;;;;;3.75;3.45;;;;;;;;;;5064273;28;20036;-57
2021/04/20 11:58:06;;;;;;;3.00;1.40;;;;;;;;;;5061996;28;20032;-59
2021/04/20 12:00:33;;;;;;;6.55;3.13;;;;;;;;;;5055596;28;20036;-59
2021/04/20 12:03:11;;;;;;;3.95;2.58;;;;;;;;;;5059010;28;20134;-60
2021/04/20 12:05:38;;;;;;;1.30;1.17;;;;;;;;;;5056538;28;20041;-58
2021/04/20 12:08:05;;;;;;;4.03;2.30;;;;;;;;;;5056162;28;20374;-57
2021/04/20 12:10:32;;;;;;;7.78;4.30;;;;;;;;;;5058642;28;20059;-56
2021/04/20 12:12:58;;;;;;;3.15;2.25;;;;;;;;;;5057270;28;20045;-59
2021/04/20 12:15:25;;;;;;;2.50;2.08;;;;;;;;;;5057960;28;20024;-58
2021/04/20 12:17:52;;;;;;;9.90;5.88;;;;;;;;;;5058284;28;20024;-60
2021/04/20 12:20:20;;;;;;;2.65;2.08;;;;;;;;;;5054187;28;20041;-62
2021/04/20 12:22:51;;;;;;;3.03;2.83;;;;;;;;;;5062476;28;20441;-58
2021/04/20 12:25:18;;;;;;;1.38;1.15;;;;;;;;;;5064630;28;20056;-56
2021/04/20 12:27:48;;;;;;;5.00;2.63;;;;;;;;;;5058629;28;20035;-56
2021/04/20 12:30:14;;;;;;;16.05;1.35;;;;;;;;;;5053673;28;20025;-60
2021/04/20 12:32:41;;;;;;;1.77;1.13;;;;;;;;;;5058939;28;20033;-59
2021/04/20 12:35:08;;;;;;;13.02;2.63;;;;;;;;;;5055196;28;20037;-59
2021/04/20 12:37:35;;;;;;;7.45;4.43;;;;;;;;;;5058801;28;20036;-58
2021/04/20 12:40:11;;;;;;;7.30;2.53;;;;;;;;;;5054764;28;20457;-57
2021/04/20 12:42:43;;;;;;;5.22;2.72;;;;;;;;;;5054546;28;20526;-57
2021/04/20 12:45:13;;;;;;;10.90;5.57;;;;;;;;;;5058561;28;20037;-58
2021/04/20 12:47:40;;;;;;;20.83;2.03;;;;;;;;;;5052411;28;20050;-58
2021/04/20 12:50:08;;;;;;;7.80;2.88;;;;;;;;;;5057962;28;20040;-57
2021/04/20 12:52:35;;;;;;;7.45;3.85;;;;;;;;;;5059959;28;20048;-58
2021/04/20 12:55:03;;;;;;;3.67;3.30;;;;;;;;;;5060543;28;20040;-57
2021/04/20 12:57:31;;;;;;;2.90;1.80;;;;;;;;;;5053232;28;20028;-58
2021/04/20 12:59:58;;;;;;;4.00;2.47;;;;;;;;;;5056097;28;20024;-57
2021/04/20 13:02:25;;;;;;;5.35;2.13;;;;;;;;;;5057245;28;20024;-57
2021/04/20 13:04:52;;;;;;;3.35;1.60;;;;;;;;;;5059003;28;20086;-56
2021/04/20 13:07:26;;;;;;;15.23;5.78;;;;;;;;;;5058590;28;20020;-60
2021/04/20 13:09:52;;;;;;;11.20;4.65;;;;;;;;;;5062361;28;20028;-58
2021/04/20 13:12:22;;;;;;;4.18;3.28;;;;;;;;;;5065801;28;20198;-60
2021/04/20 13:14:49;;;;;;;9.77;4.55;;;;;;;;;;5062809;28;20032;-58
2021/04/20 13:17:17;;;;;;;11.10;4.20;;;;;;;;;;5064290;28;20028;-61
2021/04/20 13:19:47;;;;;;;29.67;7.07;;;;;;;;;;5064276;28;20033;-57
2021/04/20 13:22:14;;;;;;;6.28;4.65;;;;;;;;;;5063680;28;20447;-55
2021/04/20 13:24:40;;;;;;;3.75;2.35;;;;;;;;;;5058596;28;20412;-56
2021/04/20 13:27:08;;;;;;;7.35;3.50;;;;;;;;;;5058976;28;20454;-55
2021/04/20 13:29:34;;;;;;;12.00;5.05;;;;;;;;;;5057578;28;20120;-58
2021/04/20 13:32:02;;;;;;;1.75;1.65;;;;;;;;;;5065060;28;20043;-56
2021/04/20 13:34:40;;;;;;;4.75;3.10;;;;;;;;;;5067898;28;20487;-56
2021/04/20 13:37:16;;;;;;;3.15;1.92;;;;;;;;;;5065665;28;20033;-57
2021/04/20 13:39:43;;;;;;;4.13;2.85;;;;;;;;;;5064002;28;20032;-57
2021/04/20 13:42:12;;;;;;;10.45;7.45;;;;;;;;;;5067616;28;20037;-60
2021/04/20 13:44:58;;;;;;;10.43;2.78;;;;;;;;;;5062284;28;20075;-56
2021/04/20 13:47:26;;;;;;;4.38;2.95;;;;;;;;;;5066166;28;20052;-56
2021/04/20 13:49:54;;;;;;;6.55;2.90;;;;;;;;;;5066716;28;20025;-58
2021/04/20 13:52:23;;;;;;;7.55;4.40;;;;;;;;;;5062139;28;20112;-56
2021/04/20 13:55:09;;;;;;;3.75;2.40;;;;;;;;;;5060520;28;20025;-58
2021/04/20 13:57:37;;;;;;;1.08;1.02;;;;;;;;;;5059891;28;20395;-56
2021/04/20 14:00:10;;;;;;;5.65;3.80;;;;;;;;;;5057932;28;20035;-58
2021/04/20 14:02:39;;;;;;;10.35;7.47;;;;;;;;;;5053097;28;20028;-56
2021/04/20 14:05:06;;;;;;;3.92;2.28;;;;;;;;;;5059938;28;20033;-57
2021/04/20 14:07:37;;;;;;;6.70;4.60;;;;;;;;;;5066829;28;20028;-56
2021/04/20 14:10:05;;;;;;;2.38;1.85;;;;;;;;;;5063482;28;20086;-58
2021/04/20 14:12:32;;;;;;;11.73;6.40;;;;;;;;;;5056811;28;20134;-61
2021/04/20 14:15:10;;;;;;;2.33;1.75;;;;;;;;;;5058897;28;20032;-57
2021/04/20 14:17:39;;;;;;;12.82;3.88;;;;;;;;;;5059739;28;20025;-55
2021/04/20 14:20:09;;;;;;;4.47;2.10;;;;;;;;;;5065372;28;20032;-55
2021/04/20 14:22:35;;;;;;;3.28;2.97;;;;;;;;;;5064487;28;20502;-59
2021/04/20 14:25:02;;;;;;;0.10;0.10;;;;;;;;;;5066905;28;20028;-58
2021/04/20 14:27:31;;;;;;;1.27;0.95;;;;;;;;;;5065517;28;20021;-55
2021/04/20 14:30:02;;;;;;;5.13;2.45;;;;;;;;;;5055121;28;20383;-55
2021/04/20 14:32:30;;;;;;;7.80;5.65;;;;;;;;;;5055563;28;20028;-55
2021/04/20 14:34:56;;;;;;;8.25;3.53;;;;;;;;;;5062972;28;20036;-54
2021/04/20 14:37:22;;;;;;;0.85;0.85;;;;;;;;;;5061961;28;20077;-58
2021/04/20 14:39:51;;;;;;;4.03;2.35;;;;;;;;;;5056868;28;20029;-58
2021/04/20 14:42:18;;;;;;;3.10;2.85;;;;;;;;;;5061032;28;20494;-58
2021/04/20 14:44:45;;;;;;;3.88;1.95;;;;;;;;;;5056738;28;20082;-56
2021/04/20 14:47:13;;;;;;;4.18;2.35;;;;;;;;;;5069221;28;20414;-57
2021/04/20 14:49:42;;;;;;;7.32;3.55;;;;;;;;;;5063799;28;20041;-55
2021/04/20 14:52:14;;;;;;;21.67;2.70;;;;;;;;;;5063981;28;20028;-57
2021/04/20 14:54:51;;;;;;;5.97;2.92;;;;;;;;;;5057300;28;20028;-59
2021/04/20 14:57:23;;;;;;;3.58;1.75;;;;;;;;;;5057007;28;20059;-56
2021/04/20 14:59:50;;;;;;;0.73;0.73;;;;;;;;;;5057669;28;20024;-56
2021/04/20 15:02:18;;;;;;;4.30;3.83;;;;;;;;;;5057650;28;20068;-55
2021/04/20 15:04:49;;;;;;;1.08;0.98;;;;;;;;;;5064406;28;20375;-51
2021/04/20 15:07:15;;;;;;;5.53;2.75;;;;;;;;;;5058268;28;20858;-56
2021/04/20 15:09:58;;;;;;;1.75;1.05;;;;;;;;;;5063229;28;20094;-54
2021/04/20 15:12:33;;;;;;;0.10;0.10;;;;;;;;;;5074481;28;20074;-57
2021/04/20 15:15:07;;;;;;;8.00;3.05;;;;;;;;;;5066221;28;20124;-56
2021/04/20 15:17:36;;;;;;;4.95;4.47;;;;;;;;;;5061887;28;24044;-57